Green Fast — ZDHA9 — position and weather

sailwx.info

Track history (hours):
 
Tides and Currents Weather Stations Pressure Air Temp Water Temp Dewpoint Dewpoint Depression Visibility Wind Speed Wind Dir Waves Ship Positions

Green Fast

Last reported at 2014-Nov-22 14:30 UTC. Time now 2014-Nov-22 16:53 UTC.
Position N 35°41' E 014°47'.

Length 118 m; draft 7.7 m.

Type: Cargo ship. MMSI: 236294000.

Date/timePositionNaut miles runAvg speedWind from/ knotsBaromVisibWave heightAir tempDewpointWater temp
2014-Nov-22 14:30N 35°41' E 014°47'239 9.2
2014-Nov-21 12:25N 37°32' E 010°23'4513.7
2014-Nov-21 09:07N 37°41' E 009°27'15313.1
2014-Nov-20 21:27N 38°20' E 006°20'1312.6
2014-Nov-20 20:24N 38°23' E 006°04'1112.4
2014-Nov-20 19:30N 38°26' E 005°50'1412.7
2014-Nov-20 18:23N 38°29' E 005°32'1412.9
2014-Nov-20 17:17N 38°33' E 005°15'5812.1
2014-Nov-20 12:29N 38°48' E 004°02'1312.9
2014-Nov-20 11:30N 38°51' E 003°47'1212.9
2014-Nov-20 10:33N 38°54' E 003°32'1312.6
2014-Nov-20 09:33N 38°58' E 003°16'1111.3
2014-Nov-20 08:33N 39°00' E 003°02'1111.3
2014-Nov-20 07:34N 39°04' E 002°48'1211.5
2014-Nov-20 06:33N 39°08' E 002°34'1211.5
2014-Nov-20 05:33N 39°13' E 002°21'1211.6
2014-Nov-20 04:33N 39°17' E 002°07'1211.8
2014-Nov-20 03:33N 39°22' E 001°53'1212.2
2014-Nov-20 02:33N 39°27' E 001°38'  
Track history (hours):
 
Tides and Currents Weather Stations Pressure Air Temp Water Temp Dewpoint Dewpoint Depression Visibility Wind Speed Wind Dir Waves Ship Positions

Green Fast

Last reported at 2014-Nov-22 14:30 UTC. Time now 2014-Nov-22 16:53 UTC.
Position N 35°41' E 014°47'.

Length 118 m; draft 7.7 m.

Type: Cargo ship. MMSI: 236294000.

Date/timePositionNaut miles runAvg speedWind from/ knotsBaromVisibWave heightAir tempDewpointWater temp
2014-Nov-22 14:30N 35°41' E 014°47'239 9.2
2014-Nov-21 12:25N 37°32' E 010°23'4513.7
2014-Nov-21 09:07N 37°41' E 009°27'15313.1
2014-Nov-20 21:27N 38°20' E 006°20'1312.6
2014-Nov-20 20:24N 38°23' E 006°04'1112.4
2014-Nov-20 19:30N 38°26' E 005°50'1412.7
2014-Nov-20 18:23N 38°29' E 005°32'1412.9
2014-Nov-20 17:17N 38°33' E 005°15'5812.1
2014-Nov-20 12:29N 38°48' E 004°02'1312.9
2014-Nov-20 11:30N 38°51' E 003°47'1212.9
2014-Nov-20 10:33N 38°54' E 003°32'1312.6
2014-Nov-20 09:33N 38°58' E 003°16'1111.3
2014-Nov-20 08:33N 39°00' E 003°02'1111.3
2014-Nov-20 07:34N 39°04' E 002°48'1211.5
2014-Nov-20 06:33N 39°08' E 002°34'1211.5
2014-Nov-20 05:33N 39°13' E 002°21'1211.6
2014-Nov-20 04:33N 39°17' E 002°07'1211.8
2014-Nov-20 03:33N 39°22' E 001°53'1212.2
2014-Nov-20 02:33N 39°27' E 001°38'  

Dump ship's entire track history